createdAt,value
2022-09-10T00:00:15.673Z,80.85
2022-09-10T00:02:45.475Z,81.01
2022-09-10T00:05:15.082Z,80.62
2022-09-10T00:07:45.067Z,80.95
2022-09-10T00:10:16.307Z,81.40
2022-09-10T00:12:47.712Z,81.33
2022-09-10T00:15:17.821Z,80.70
2022-09-10T00:17:47.870Z,81.26
2022-09-10T00:20:17.658Z,81.06
2022-09-10T00:22:49.081Z,80.82
2022-09-10T00:25:18.965Z,80.82
2022-09-10T00:27:48.772Z,80.68
2022-09-10T00:30:18.770Z,81.08
2022-09-10T00:32:49.895Z,80.63
2022-09-10T00:35:22.515Z,81.20
2022-09-10T00:37:52.250Z,80.71
2022-09-10T00:40:22.011Z,81.42
2022-09-10T00:42:51.473Z,81.71
2022-09-10T00:45:24.376Z,80.95
2022-09-10T00:47:57.950Z,80.95
2022-09-10T00:50:33.227Z,80.85
2022-09-10T00:53:06.007Z,80.88
2022-09-10T00:55:38.324Z,80.56
2022-09-10T00:58:12.767Z,80.18
2022-09-10T01:00:43.067Z,80.18
2022-09-10T01:03:15.777Z,79.97
2022-09-10T01:05:48.111Z,80.66
2022-09-10T01:08:19.650Z,80.66
2022-09-10T01:10:52.900Z,81.33
2022-09-10T01:13:28.893Z,81.04
2022-09-10T01:16:10.228Z,80.54
2022-09-10T01:18:57.671Z,81.87
2022-09-10T01:21:30.884Z,81.75
2022-09-10T01:24:21.557Z,81.09
2022-09-10T01:27:13.694Z,81.28
2022-09-10T01:30:04.584Z,81.42
2022-09-10T01:32:53.626Z,80.92
2022-09-10T01:35:37.083Z,80.99
2022-09-10T01:40:49.846Z,80.41
2022-09-10T01:43:22.843Z,80.80
2022-09-10T01:45:57.102Z,80.54
2022-09-10T01:48:32.374Z,80.55
2022-09-10T01:51:14.970Z,80.17
2022-09-10T01:54:00.120Z,81.11
2022-09-10T01:56:44.427Z,80.79
2022-09-10T01:59:26.168Z,80.45
2022-09-10T02:02:01.239Z,81.19
2022-09-10T02:04:32.318Z,81.27
2022-09-10T02:07:05.842Z,81.17
2022-09-10T02:09:35.814Z,80.74
2022-09-10T02:12:12.645Z,81.27
2022-09-10T02:14:53.957Z,81.31
2022-09-10T02:17:33.874Z,81.31
2022-09-10T02:20:05.966Z,81.12
2022-09-10T02:22:37.745Z,81.40
2022-09-10T02:25:09.826Z,81.38
2022-09-10T02:27:42.522Z,82.20
2022-09-10T02:30:14.659Z,82.72
2022-09-10T02:32:44.784Z,83.04
2022-09-10T02:35:15.528Z,83.31
2022-09-10T02:37:47.324Z,83.46
2022-09-10T02:40:18.498Z,82.56
2022-09-10T02:42:48.542Z,83.21
2022-09-10T02:45:20.083Z,83.49
2022-09-10T02:47:50.382Z,83.81
2022-09-10T02:50:20.456Z,83.83
2022-09-10T02:56:13.995Z,83.06
2022-09-10T02:58:45.159Z,82.31
2022-09-10T03:01:19.385Z,83.27
2022-09-10T03:03:54.891Z,84.04
2022-09-10T03:06:25.787Z,83.58
2022-09-10T03:08:55.873Z,83.58
2022-09-10T03:11:27.329Z,84.09
2022-09-10T03:13:59.272Z,84.27
2022-09-10T03:16:29.150Z,85.08
2022-09-10T03:18:59.275Z,83.69
2022-09-10T03:21:29.433Z,84.40
2022-09-10T03:23:59.943Z,83.68
2022-09-10T03:26:31.538Z,83.93
2022-09-10T03:29:01.555Z,84.04
2022-09-10T03:31:32.777Z,83.93
2022-09-10T03:34:03.307Z,84.64
2022-09-10T03:36:33.291Z,84.79
2022-09-10T03:39:03.201Z,85.48
2022-09-10T03:41:33.197Z,85.74
2022-09-10T03:44:03.258Z,84.35
2022-09-10T03:46:33.181Z,85.50
2022-09-10T03:49:03.880Z,84.04
2022-09-10T03:51:35.129Z,84.91
2022-09-10T03:54:06.309Z,84.85
2022-09-10T03:56:36.110Z,84.84
2022-09-10T03:59:06.124Z,85.66
2022-09-10T04:01:36.934Z,85.47
2022-09-10T04:04:10.348Z,84.95
2022-09-10T04:06:40.462Z,84.95
2022-09-10T04:09:11.938Z,86.21
2022-09-10T04:11:41.565Z,85.24
2022-09-10T04:14:12.074Z,86.97
2022-09-10T04:16:43.307Z,85.94
2022-09-10T04:19:14.972Z,85.46
2022-09-10T04:21:44.733Z,85.71
2022-09-10T04:24:14.253Z,85.08
2022-09-10T04:26:44.486Z,85.77
2022-09-10T04:29:16.093Z,84.85
2022-09-10T04:31:46.639Z,84.15
2022-09-10T04:34:18.115Z,84.29
2022-09-10T04:36:48.017Z,84.82
2022-09-10T04:39:18.182Z,85.13
2022-09-10T04:41:49.631Z,84.45
2022-09-10T04:44:20.112Z,85.26
2022-09-10T04:46:50.038Z,86.13
2022-09-10T04:49:19.825Z,85.32
2022-09-10T04:51:50.146Z,84.99
2022-09-10T04:54:20.162Z,85.07
2022-09-10T04:56:51.609Z,84.71
2022-09-10T04:59:21.430Z,84.71
2022-09-10T05:01:51.578Z,84.62
2022-09-10T05:04:21.180Z,84.90
2022-09-10T05:06:51.165Z,84.80
2022-09-10T05:09:22.054Z,83.93
2022-09-10T05:11:51.805Z,84.38
2022-09-10T05:14:23.137Z,85.03
2022-09-10T05:16:53.171Z,85.25
2022-09-10T05:19:23.177Z,84.40
2022-09-10T05:21:57.587Z,84.47
2022-09-10T05:24:27.866Z,85.17
2022-09-10T05:26:57.690Z,85.28
2022-09-10T05:29:27.650Z,85.86
2022-09-10T05:31:57.449Z,86.51
2022-09-10T05:34:27.790Z,86.30
2022-09-10T05:36:57.599Z,88.02
2022-09-10T05:39:27.747Z,87.55
2022-09-10T05:41:57.760Z,87.82
2022-09-10T05:44:27.585Z,88.50
2022-09-10T05:46:57.630Z,88.79
2022-09-10T05:49:29.763Z,88.72
2022-09-10T05:51:59.572Z,88.32
2022-09-10T05:54:29.989Z,89.39
2022-09-10T05:57:00.091Z,88.77
2022-09-10T05:59:30.154Z,88.98
2022-09-10T06:02:00.064Z,89.14
2022-09-10T06:04:30.799Z,89.54
2022-09-10T06:07:01.792Z,89.36
2022-09-10T06:09:31.604Z,90.12
2022-09-10T06:12:08.374Z,89.82
2022-09-10T06:14:38.381Z,89.53
2022-09-10T06:17:08.458Z,88.72
2022-09-10T06:19:40.155Z,89.16
2022-09-10T06:22:11.559Z,88.06
2022-09-10T06:24:43.440Z,88.57
2022-09-10T06:27:13.250Z,87.97
2022-09-10T06:29:42.984Z,87.73
2022-09-10T06:32:13.213Z,87.29
2022-09-10T06:34:42.939Z,87.68
2022-09-10T06:37:13.217Z,87.13
2022-09-10T06:39:43.273Z,87.29
2022-09-10T06:42:13.576Z,86.40
2022-09-10T06:44:53.985Z,86.59
2022-09-10T06:50:00.064Z,86.19
2022-09-10T06:52:31.052Z,86.03
2022-09-10T06:55:02.586Z,85.97
2022-09-10T06:57:34.046Z,86.47
2022-09-10T07:00:06.665Z,86.47
2022-09-10T07:02:37.269Z,85.69
2022-09-10T07:05:08.120Z,85.92
2022-09-10T07:07:39.135Z,85.69
2022-09-10T07:10:11.548Z,85.69
2022-09-10T07:12:41.211Z,86.21
2022-09-10T07:15:11.894Z,85.84
2022-09-10T07:17:41.786Z,86.21
2022-09-10T07:20:14.780Z,85.41
2022-09-10T07:22:46.494Z,85.41
2022-09-10T07:25:16.971Z,85.16
2022-09-10T07:27:57.744Z,84.92
2022-09-10T07:30:30.866Z,84.82
2022-09-10T07:33:01.078Z,83.84
2022-09-10T07:35:33.673Z,84.67
2022-09-10T07:38:05.051Z,84.98
2022-09-10T07:40:36.883Z,84.98
2022-09-10T07:43:08.185Z,84.02
2022-09-10T07:45:38.450Z,86.17
2022-09-10T07:48:09.526Z,85.72
2022-09-10T07:50:40.523Z,86.62
2022-09-10T07:53:11.136Z,87.42
2022-09-10T07:55:41.716Z,86.28
2022-09-10T07:58:11.836Z,86.39
2022-09-10T08:00:43.284Z,85.46
2022-09-10T08:03:13.373Z,85.73
2022-09-10T08:05:46.032Z,85.73
2022-09-10T08:08:16.121Z,85.38
2022-09-10T08:10:49.619Z,84.92
2022-09-10T08:13:20.055Z,84.16
2022-09-10T08:15:50.344Z,84.29
2022-09-10T08:18:20.949Z,83.99
2022-09-10T08:20:55.927Z,84.79
2022-09-10T08:23:25.736Z,83.83
2022-09-10T08:25:55.564Z,83.30
2022-09-10T08:28:27.197Z,83.32
2022-09-10T08:31:02.791Z,82.93
2022-09-10T08:33:39.272Z,84.40
2022-09-10T08:36:14.541Z,82.94
2022-09-10T08:38:45.819Z,81.23
2022-09-10T08:41:35.115Z,81.25
2022-09-10T08:44:13.361Z,80.89
2022-09-10T08:46:51.524Z,80.44
2022-09-10T08:49:51.964Z,79.66
2022-09-10T08:52:43.208Z,79.73
2022-09-10T08:55:25.442Z,78.95
2022-09-10T08:58:03.202Z,79.07
2022-09-10T09:00:39.065Z,78.74
2022-09-10T09:03:35.577Z,80.08
2022-09-10T09:06:12.907Z,78.90
2022-09-10T09:08:49.757Z,78.70
2022-09-10T09:11:29.522Z,77.51
2022-09-10T09:14:14.220Z,76.78
2022-09-10T09:16:55.573Z,76.99
2022-09-10T09:19:34.450Z,74.70
2022-09-10T09:22:15.758Z,74.46
2022-09-10T09:25:01.801Z,74.51
2022-09-10T09:27:35.581Z,75.35
2022-09-10T09:30:23.173Z,77.05
2022-09-10T09:32:54.353Z,79.09
2022-09-10T09:35:27.142Z,79.92
2022-09-10T09:38:09.550Z,80.42
2022-09-10T09:40:47.963Z,80.97
2022-09-10T09:43:37.256Z,80.41
2022-09-10T09:46:11.502Z,79.11
2022-09-10T09:48:42.779Z,77.95
2022-09-10T09:51:21.444Z,77.90
2022-09-10T09:54:12.181Z,78.16
2022-09-10T09:56:30.568Z,78.21
2022-09-10T09:59:04.315Z,77.67
2022-09-10T10:01:34.832Z,79.09
2022-09-10T10:04:09.329Z,79.23
2022-09-10T10:06:49.750Z,79.76
2022-09-10T10:09:27.629Z,80.99
2022-09-10T10:12:03.863Z,82.19
2022-09-10T10:14:39.801Z,82.10
2022-09-10T10:17:38.912Z,81.91
2022-09-10T10:20:16.516Z,82.25
2022-09-10T10:22:49.328Z,81.29
2022-09-10T10:25:38.161Z,81.29
2022-09-10T10:28:12.850Z,82.60
2022-09-10T10:30:43.147Z,82.46
2022-09-10T10:33:15.965Z,84.03
2022-09-10T10:36:06.271Z,84.30
2022-09-10T10:38:40.180Z,83.56
2022-09-10T10:41:39.647Z,85.29
2022-09-10T10:44:24.173Z,86.08
2022-09-10T10:47:02.078Z,86.27
2022-09-10T10:49:39.954Z,86.95
2022-09-10T10:52:25.881Z,87.23
2022-09-10T10:55:13.297Z,89.64
2022-09-10T10:58:06.829Z,88.60
2022-09-10T11:00:40.614Z,89.19
2022-09-10T11:03:22.392Z,88.98
2022-09-10T11:05:55.948Z,89.06
2022-09-10T11:08:42.885Z,87.78
2022-09-10T11:11:18.306Z,87.49
2022-09-10T11:13:53.820Z,87.14
2022-09-10T11:16:46.269Z,86.62
2022-09-10T11:19:38.183Z,86.70
2022-09-10T11:22:21.295Z,86.70
2022-09-10T11:24:54.087Z,85.90
2022-09-10T11:27:35.877Z,86.77
2022-09-10T11:30:15.582Z,85.93
2022-09-10T11:33:03.247Z,86.75
2022-09-10T11:35:36.053Z,86.44
2022-09-10T11:38:27.510Z,86.54
2022-09-10T11:41:00.356Z,85.77
2022-09-10T11:43:37.110Z,85.96
2022-09-10T11:46:11.186Z,85.34
2022-09-10T11:48:49.431Z,85.37
2022-09-10T11:51:27.984Z,84.92
2022-09-10T11:53:58.549Z,85.37
2022-09-10T11:56:36.981Z,83.96
2022-09-10T11:59:09.786Z,85.09
2022-09-10T12:01:49.270Z,85.38
2022-09-10T12:04:43.665Z,83.36
2022-09-10T12:07:36.133Z,83.44
2022-09-10T12:10:14.621Z,81.08
2022-09-10T12:12:47.557Z,80.82
2022-09-10T12:15:25.351Z,81.48
2022-09-10T12:17:58.696Z,80.48
2022-09-10T12:20:37.666Z,81.25
2022-09-10T12:23:08.196Z,80.84
2022-09-10T12:25:37.973Z,81.24
2022-09-10T12:28:13.371Z,81.40
2022-09-10T12:30:46.267Z,82.07
2022-09-10T12:33:22.312Z,81.75
2022-09-10T12:35:53.195Z,80.92
2022-09-10T12:38:59.324Z,80.48
2022-09-10T12:41:32.110Z,79.36
2022-09-10T12:44:02.900Z,79.68
2022-09-10T12:46:33.722Z,79.70
2022-09-10T12:49:09.529Z,79.19
2022-09-10T12:51:53.568Z,77.56
2022-09-10T12:54:28.750Z,76.51
2022-09-10T12:57:01.541Z,76.03
2022-09-10T12:59:43.124Z,76.32
2022-09-10T13:02:27.949Z,76.31
2022-09-10T13:05:09.453Z,75.04
2022-09-10T13:07:41.558Z,74.45
2022-09-10T13:10:27.111Z,73.94
2022-09-10T13:13:00.059Z,74.98
2022-09-10T13:15:33.344Z,76.72
2022-09-10T13:18:12.112Z,77.56
2022-09-10T13:20:41.831Z,78.06
2022-09-10T13:23:15.518Z,78.24
2022-09-10T13:25:47.579Z,78.01
2022-09-10T13:28:34.937Z,78.23
2022-09-10T13:31:11.300Z,78.53
2022-09-10T13:33:56.007Z,77.20
2022-09-10T13:36:48.149Z,77.20
2022-09-10T13:39:26.715Z,77.51
2022-09-10T13:42:14.304Z,77.70
2022-09-10T13:45:20.093Z,79.13
2022-09-10T13:47:55.587Z,76.56
2022-09-10T13:50:28.708Z,75.70
2022-09-10T13:53:01.977Z,76.91
2022-09-10T13:55:34.027Z,73.07
2022-09-10T13:58:14.007Z,71.52
2022-09-10T14:00:52.683Z,71.90
2022-09-10T14:03:28.494Z,75.04
2022-09-10T14:06:00.245Z,76.60
2022-09-10T14:08:35.814Z,79.01
2022-09-10T14:11:14.378Z,80.79
2022-09-10T14:13:47.153Z,80.67
2022-09-10T14:16:27.220Z,81.09
2022-09-10T14:18:59.125Z,81.01
2022-09-10T14:21:29.594Z,81.47
2022-09-10T14:24:00.961Z,80.68
2022-09-10T14:26:33.735Z,80.11
2022-09-10T14:29:06.620Z,80.54
2022-09-10T14:31:38.352Z,79.52
2022-09-10T14:34:34.792Z,79.42
2022-09-10T14:37:07.850Z,79.02
2022-09-10T14:39:39.145Z,78.42
2022-09-10T14:42:29.210Z,78.94
2022-09-10T14:44:58.952Z,78.94
2022-09-10T14:47:33.070Z,77.33
2022-09-10T14:50:27.804Z,77.20
2022-09-10T14:52:58.160Z,76.64
2022-09-10T14:55:33.037Z,76.13
2022-09-10T14:58:02.851Z,75.07
2022-09-10T15:00:33.906Z,73.92
2022-09-10T15:03:03.890Z,73.94
2022-09-10T15:05:33.618Z,71.84
2022-09-10T15:08:03.564Z,72.54
2022-09-10T15:10:33.359Z,74.18
2022-09-10T15:13:03.165Z,70.96
2022-09-10T15:15:33.026Z,71.34
2022-09-10T15:18:03.030Z,71.50
2022-09-10T15:20:32.534Z,71.07
2022-09-10T15:23:02.260Z,72.22
2022-09-10T15:25:38.411Z,69.82
2022-09-10T15:28:08.233Z,70.73
2022-09-10T15:30:38.272Z,70.91
2022-09-10T15:33:09.403Z,69.28
2022-09-10T15:35:40.214Z,69.02
2022-09-10T15:38:15.838Z,68.52
2022-09-10T15:40:47.260Z,65.05
2022-09-10T15:43:22.545Z,67.94
2022-09-10T15:45:52.287Z,69.08
2022-09-10T15:48:22.018Z,69.83
2022-09-10T15:50:51.729Z,72.19
2022-09-10T15:53:21.765Z,72.26
2022-09-10T15:55:51.490Z,72.60
2022-09-10T15:58:21.141Z,73.08
2022-09-10T16:00:51.161Z,73.35
2022-09-10T16:03:21.377Z,74.02
2022-09-10T16:05:51.091Z,74.18
2022-09-10T16:08:20.834Z,73.92
2022-09-10T16:10:52.492Z,73.00
2022-09-10T16:13:22.298Z,72.68
2022-09-10T16:16:03.576Z,73.37
2022-09-10T16:18:34.193Z,73.37
2022-09-10T16:21:11.977Z,72.91
2022-09-10T16:23:43.915Z,73.03
2022-09-10T16:26:16.724Z,73.03
2022-09-10T16:28:57.227Z,73.52
2022-09-10T16:31:30.207Z,73.19
2022-09-10T16:34:03.558Z,72.91
2022-09-10T16:36:36.790Z,73.29
2022-09-10T16:39:10.691Z,73.12
2022-09-10T16:41:45.845Z,73.11
2022-09-10T16:44:17.520Z,73.22
2022-09-10T16:46:48.118Z,73.68
2022-09-10T16:49:19.580Z,73.17
2022-09-10T16:51:49.488Z,74.43
2022-09-10T16:54:20.810Z,74.18
2022-09-10T16:56:50.985Z,74.58
2022-09-10T16:59:23.996Z,73.46
2022-09-10T17:01:54.835Z,73.33
2022-09-10T17:04:29.018Z,73.28
2022-09-10T17:06:58.923Z,73.32
2022-09-10T17:09:28.707Z,73.80
2022-09-10T17:11:58.475Z,73.52
2022-09-10T17:14:27.918Z,72.99
2022-09-10T17:16:58.533Z,74.22
2022-09-10T17:19:29.262Z,73.23
2022-09-10T17:21:58.740Z,73.51
2022-09-10T17:24:28.557Z,73.71
2022-09-10T17:26:58.283Z,73.81
2022-09-10T17:29:28.091Z,74.39
2022-09-10T17:31:58.497Z,73.60
2022-09-10T17:34:28.509Z,74.02
2022-09-10T17:36:58.246Z,74.07
2022-09-10T17:39:29.246Z,74.11
2022-09-10T17:41:59.069Z,74.11
2022-09-10T17:44:28.848Z,74.01
2022-09-10T17:46:58.598Z,74.94
2022-09-10T17:49:28.506Z,74.02
2022-09-10T17:52:00.166Z,74.12
2022-09-10T17:54:30.189Z,74.27
2022-09-10T17:56:59.956Z,75.26
2022-09-10T17:59:30.029Z,74.96
2022-09-10T18:01:59.644Z,75.59
2022-09-10T18:04:30.652Z,76.08
2022-09-10T18:07:01.025Z,76.71
2022-09-10T18:09:30.832Z,76.82
2022-09-10T18:12:02.113Z,77.53
2022-09-10T18:14:32.104Z,77.51
2022-09-10T18:17:03.139Z,77.51
2022-09-10T18:19:33.222Z,76.87
2022-09-10T18:22:02.939Z,76.98
2022-09-10T18:24:32.749Z,76.93
2022-09-10T18:27:04.125Z,76.72
2022-09-10T18:29:34.992Z,77.02
2022-09-10T18:32:07.846Z,77.12
2022-09-10T18:34:39.243Z,77.56
2022-09-10T18:37:09.085Z,77.10
2022-09-10T18:39:38.928Z,77.38
2022-09-10T18:42:11.197Z,77.75
2022-09-10T18:44:40.987Z,77.89
2022-09-10T18:47:28.013Z,77.89
2022-09-10T18:49:43.930Z,78.02
2022-09-10T18:52:13.664Z,78.24
2022-09-10T18:54:46.645Z,78.33
2022-09-10T18:57:15.749Z,78.74
2022-09-10T18:59:45.526Z,79.09
2022-09-10T19:02:17.121Z,78.71
2022-09-10T19:05:09.765Z,80.18
2022-09-10T19:07:18.853Z,78.91
2022-09-10T19:09:48.601Z,78.73
2022-09-10T19:12:19.298Z,78.84
2022-09-10T19:14:49.135Z,78.52
2022-09-10T19:17:18.935Z,78.97
2022-09-10T19:19:50.054Z,79.46
2022-09-10T19:22:19.583Z,79.72
2022-09-10T19:24:54.850Z,79.31
2022-09-10T19:27:21.783Z,79.13
2022-09-10T19:29:51.747Z,78.90
2022-09-10T19:32:21.279Z,79.06
2022-09-10T19:34:52.059Z,78.18
2022-09-10T19:37:21.788Z,78.86
2022-09-10T19:39:51.649Z,79.67
2022-09-10T19:42:21.172Z,78.99
2022-09-10T19:44:50.918Z,78.64
2022-09-10T19:47:20.830Z,78.92
2022-09-10T19:49:51.346Z,78.92
2022-09-10T19:52:21.466Z,78.19
2022-09-10T19:54:51.515Z,78.72
2022-09-10T19:57:21.543Z,78.83
2022-09-10T19:59:52.177Z,79.07
2022-09-10T20:02:21.729Z,78.60
2022-09-10T20:04:51.611Z,78.01
2022-09-10T20:07:21.665Z,78.01
2022-09-10T20:09:51.855Z,79.00
2022-09-10T20:12:22.465Z,79.41
2022-09-10T20:14:52.207Z,78.88
2022-09-10T20:17:22.020Z,79.06
2022-09-10T20:19:51.842Z,79.30
2022-09-10T20:22:21.488Z,80.12
2022-09-10T20:24:51.899Z,79.94
2022-09-10T20:27:21.351Z,79.50
2022-09-10T20:29:51.120Z,79.32
2022-09-10T20:32:20.851Z,79.71
2022-09-10T20:34:50.666Z,79.42
2022-09-10T20:37:20.721Z,79.77
2022-09-10T20:39:51.084Z,79.53
2022-09-10T20:42:20.934Z,79.33
2022-09-10T20:44:50.673Z,80.28
2022-09-10T20:47:20.127Z,80.67
2022-09-10T20:49:49.861Z,80.61
2022-09-10T20:52:19.605Z,80.12
2022-09-10T20:54:50.129Z,80.12
2022-09-10T20:57:21.141Z,80.25
2022-09-10T20:59:50.887Z,80.46
2022-09-10T21:02:20.768Z,80.01
2022-09-10T21:04:50.648Z,80.17
2022-09-10T21:07:20.696Z,80.17
2022-09-10T21:09:50.443Z,80.57
2022-09-10T21:12:20.255Z,80.35
2022-09-10T21:14:50.164Z,80.54
2022-09-10T21:17:19.897Z,80.54
2022-09-10T21:19:49.715Z,80.26
2022-09-10T21:22:20.131Z,80.71
2022-09-10T21:24:49.872Z,81.50
2022-09-10T21:27:19.663Z,81.57
2022-09-10T21:29:49.407Z,81.20
2022-09-10T21:32:19.450Z,81.20
2022-09-10T21:34:49.506Z,81.02
2022-09-10T21:37:19.250Z,81.54
2022-09-10T21:39:49.173Z,82.04
2022-09-10T21:42:18.943Z,82.40
2022-09-10T21:44:48.685Z,82.04
2022-09-10T21:47:18.750Z,82.04
2022-09-10T21:49:48.799Z,81.58
2022-09-10T21:52:18.578Z,81.91
2022-09-10T21:54:48.122Z,81.52
2022-09-10T21:57:17.869Z,81.01
2022-09-10T21:59:48.390Z,81.70
2022-09-10T22:02:18.028Z,81.51
2022-09-10T22:04:47.747Z,81.69
2022-09-10T22:07:17.559Z,81.69
2022-09-10T22:09:47.314Z,82.21
2022-09-10T22:12:16.766Z,81.89
2022-09-10T22:14:46.669Z,81.72
2022-09-10T22:17:17.693Z,81.98
2022-09-10T22:19:47.241Z,82.43
2022-09-10T22:22:16.998Z,81.83
2022-09-10T22:24:46.726Z,81.34
2022-09-10T22:27:16.726Z,80.99
2022-09-10T22:29:46.181Z,82.21
2022-09-10T22:32:15.910Z,81.64
2022-09-10T22:34:46.850Z,81.87
2022-09-10T22:37:16.339Z,81.97
2022-09-10T22:39:46.452Z,81.43
2022-09-10T22:42:16.220Z,81.54
2022-09-10T22:44:45.970Z,82.46
2022-09-10T22:47:15.744Z,81.92
2022-09-10T22:49:47.463Z,82.27
2022-09-10T22:52:17.222Z,81.60
2022-09-10T22:54:46.963Z,81.38
2022-09-10T22:57:17.283Z,81.79
2022-09-10T22:59:47.289Z,82.38
2022-09-10T23:02:16.759Z,82.01
2022-09-10T23:04:46.219Z,81.70
2022-09-10T23:07:16.447Z,81.93
2022-09-10T23:09:46.763Z,82.17
2022-09-10T23:12:16.219Z,82.17
2022-09-10T23:14:45.963Z,81.67
2022-09-10T23:17:18.500Z,82.11
2022-09-10T23:19:47.632Z,82.26
2022-09-10T23:22:17.538Z,82.18
2022-09-10T23:24:47.275Z,82.29
2022-09-10T23:27:17.016Z,82.45
2022-09-10T23:29:48.592Z,82.31
2022-09-10T23:32:18.319Z,81.93
2022-09-10T23:34:48.145Z,82.07
2022-09-10T23:37:17.768Z,81.62
2022-09-10T23:39:47.549Z,82.31
2022-09-10T23:42:17.444Z,82.52
2022-09-10T23:44:47.190Z,82.77
2022-09-10T23:47:17.224Z,82.14
2022-09-10T23:49:47.863Z,82.00
2022-09-10T23:52:17.605Z,81.94
2022-09-10T23:54:47.360Z,81.88
2022-09-10T23:57:17.529Z,82.26
2022-09-10T23:59:47.292Z,82.26
